Aeroporto :
LOGIN :

Iscrizione | Disclaimer

   EN    FR    IT 

 










Sommario :    VFR   VFR Marginale   IFR   IFR Intensivo   IFR Molto Intensivo
Visibilità : 
Base nubi : 
>= 8 km
>= 3000ft
5 / 8 km
1000 / 3000 ft
1500m / 5 km
500 / 1000 ft
800 / 1500m
200 / 500 ft
< 800m
< 200 ft
Simboli :   Temporali  Nebbia  Neve Forte  Precipitazioni Forti  Vento > 20 kt
SIGMETs :   Varie  Temporali  Ghiacco  Turbolenza  Onda orograficha  Ceneri Vulcaniche






- Altitudine del aeroporto : 1682 ft
- Codice IATA : VIT


LEVT - Vitoria Gasteiz

ULTIMO METAR :
  • 141200Z 22009KT 190V250 9999 FEW035 SCT045 13/07 Q1015

METARs OBSOLETI :
  • 141130Z 22013KT 9999 FEW035 13/08 Q1016
  • 141100Z 22013KT 190V250 9999 FEW030 12/07 Q1016
  • 141030Z 22012KT 170V260 9999 FEW030 12/08 Q1016
  • 141000Z 22014KT 190V260 9999 FEW030 11/07 Q1016
  • 140930Z 22012KT 9999 FEW030 11/07 Q1016

TAF TAF LEVT
Valido dal 14 a 12 ore il 15 a 12 ore UTC


141100Z 1412/1512 22009KT 9999 SCT050 TX14/1414Z TN07/1508Z
PROB40
TEMPO 1412/1512 23015G28KT



MetMap, La meteo Aeronautica in un colpo d'occhio ! - Copyright ORBIFLY Dicembre 2007 - Disclaimer

ORBIFLY MET'MAP TEAM :

Programmazione e sviluppo : Alexandra Zaïnal
Concezione : Baudouin d'Aumeries
Aiuto per la programmazione : Marc-Olivier Méhu
Supporto tecnico e logistico : Manuel Goepfert
Aiuto per la traduzione : Arnaldo La Scala

Contatto : metmap@orbifly.com




FONTI E CREDITI :

   NOAA